sensor_id;sensor_type;location;lat;lon;timestamp;P1;durP1;ratioP1;P2;durP2;ratioP2
20870;SDS011;10595;51.218;3.452;2023-04-24T00:00:09;10.63;;;3.80;;
20870;SDS011;10595;51.218;3.452;2023-04-24T00:02:35;11.17;;;4.13;;
20870;SDS011;10595;51.218;3.452;2023-04-24T00:05:06;11.10;;;4.07;;
20870;SDS011;10595;51.218;3.452;2023-04-24T00:07:34;8.90;;;3.90;;
20870;SDS011;10595;51.218;3.452;2023-04-24T00:10:00;11.83;;;4.63;;
20870;SDS011;10595;51.218;3.452;2023-04-24T00:12:26;7.60;;;4.17;;
20870;SDS011;10595;51.218;3.452;2023-04-24T00:14:53;9.27;;;4.10;;
20870;SDS011;10595;51.218;3.452;2023-04-24T00:17:19;12.63;;;4.60;;
20870;SDS011;10595;51.218;3.452;2023-04-24T00:19:48;9.53;;;4.80;;
20870;SDS011;10595;51.218;3.452;2023-04-24T00:22:23;8.83;;;4.87;;
20870;SDS011;10595;51.218;3.452;2023-04-24T00:24:49;7.70;;;3.93;;
20870;SDS011;10595;51.218;3.452;2023-04-24T00:27:15;11.13;;;4.90;;
20870;SDS011;10595;51.218;3.452;2023-04-24T00:29:42;11.50;;;5.37;;
20870;SDS011;10595;51.218;3.452;2023-04-24T00:32:08;11.67;;;4.33;;
20870;SDS011;10595;51.218;3.452;2023-04-24T00:34:34;7.13;;;4.90;;
20870;SDS011;10595;51.218;3.452;2023-04-24T00:37:00;9.63;;;4.93;;
20870;SDS011;10595;51.218;3.452;2023-04-24T00:39:27;11.43;;;4.93;;
20870;SDS011;10595;51.218;3.452;2023-04-24T00:41:53;10.23;;;4.80;;
20870;SDS011;10595;51.218;3.452;2023-04-24T00:44:20;15.67;;;6.13;;
20870;SDS011;10595;51.218;3.452;2023-04-24T00:46:46;11.63;;;4.83;;
20870;SDS011;10595;51.218;3.452;2023-04-24T00:49:17;13.87;;;5.67;;
20870;SDS011;10595;51.218;3.452;2023-04-24T00:51:43;17.97;;;4.93;;
20870;SDS011;10595;51.218;3.452;2023-04-24T00:54:10;9.87;;;5.70;;
20870;SDS011;10595;51.218;3.452;2023-04-24T00:56:36;11.00;;;5.30;;
20870;SDS011;10595;51.218;3.452;2023-04-24T00:59:03;11.97;;;6.50;;
20870;SDS011;10595;51.218;3.452;2023-04-24T01:01:29;13.40;;;6.63;;
20870;SDS011;10595;51.218;3.452;2023-04-24T01:03:55;12.43;;;6.23;;
20870;SDS011;10595;51.218;3.452;2023-04-24T01:06:23;13.80;;;6.67;;
20870;SDS011;10595;51.218;3.452;2023-04-24T01:08:51;10.63;;;7.47;;
20870;SDS011;10595;51.218;3.452;2023-04-24T01:11:18;14.10;;;8.17;;
20870;SDS011;10595;51.218;3.452;2023-04-24T01:13:44;16.80;;;8.53;;
20870;SDS011;10595;51.218;3.452;2023-04-24T01:16:10;17.33;;;9.23;;
20870;SDS011;10595;51.218;3.452;2023-04-24T01:18:36;19.30;;;9.37;;
20870;SDS011;10595;51.218;3.452;2023-04-24T01:21:03;18.23;;;10.27;;
20870;SDS011;10595;51.218;3.452;2023-04-24T01:23:29;20.20;;;11.40;;
20870;SDS011;10595;51.218;3.452;2023-04-24T01:25:55;25.87;;;12.23;;
20870;SDS011;10595;51.218;3.452;2023-04-24T01:28:21;24.63;;;13.70;;
20870;SDS011;10595;51.218;3.452;2023-04-24T01:30:48;28.47;;;15.30;;
20870;SDS011;10595;51.218;3.452;2023-04-24T01:33:14;32.70;;;15.30;;
20870;SDS011;10595;51.218;3.452;2023-04-24T01:35:40;29.50;;;15.73;;
20870;SDS011;10595;51.218;3.452;2023-04-24T01:38:06;33.73;;;15.97;;
20870;SDS011;10595;51.218;3.452;2023-04-24T01:40:32;34.17;;;16.90;;
20870;SDS011;10595;51.218;3.452;2023-04-24T01:42:58;29.03;;;12.00;;
20870;SDS011;10595;51.218;3.452;2023-04-24T01:45:24;21.67;;;9.23;;
20870;SDS011;10595;51.218;3.452;2023-04-24T01:47:50;11.87;;;5.07;;
20870;SDS011;10595;51.218;3.452;2023-04-24T01:50:17;13.17;;;4.80;;
20870;SDS011;10595;51.218;3.452;2023-04-24T01:52:43;10.50;;;4.53;;
20870;SDS011;10595;51.218;3.452;2023-04-24T01:55:09;13.53;;;4.83;;
20870;SDS011;10595;51.218;3.452;2023-04-24T01:57:36;17.47;;;4.87;;
20870;SDS011;10595;51.218;3.452;2023-04-24T02:00:02;9.57;;;5.07;;
20870;SDS011;10595;51.218;3.452;2023-04-24T02:02:32;13.07;;;5.13;;
20870;SDS011;10595;51.218;3.452;2023-04-24T02:04:58;9.90;;;4.60;;
20870;SDS011;10595;51.218;3.452;2023-04-24T02:07:24;13.53;;;5.53;;
20870;SDS011;10595;51.218;3.452;2023-04-24T02:09:50;12.20;;;5.17;;
20870;SDS011;10595;51.218;3.452;2023-04-24T02:12:16;8.83;;;4.83;;
20870;SDS011;10595;51.218;3.452;2023-04-24T02:14:43;11.63;;;4.90;;
20870;SDS011;10595;51.218;3.452;2023-04-24T02:17:09;16.33;;;5.17;;
20870;SDS011;10595;51.218;3.452;2023-04-24T02:19:37;17.27;;;5.87;;
20870;SDS011;10595;51.218;3.452;2023-04-24T02:22:03;10.97;;;4.73;;
20870;SDS011;10595;51.218;3.452;2023-04-24T02:24:29;10.40;;;5.03;;
20870;SDS011;10595;51.218;3.452;2023-04-24T02:26:55;14.80;;;5.53;;
20870;SDS011;10595;51.218;3.452;2023-04-24T02:29:22;10.27;;;6.13;;
20870;SDS011;10595;51.218;3.452;2023-04-24T02:31:49;16.97;;;6.17;;
20870;SDS011;10595;51.218;3.452;2023-04-24T02:34:15;12.40;;;5.53;;
20870;SDS011;10595;51.218;3.452;2023-04-24T02:36:41;12.67;;;6.63;;
20870;SDS011;10595;51.218;3.452;2023-04-24T02:39:07;15.93;;;6.97;;
20870;SDS011;10595;51.218;3.452;2023-04-24T02:41:33;14.43;;;6.57;;
20870;SDS011;10595;51.218;3.452;2023-04-24T02:43:59;14.30;;;7.00;;
20870;SDS011;10595;51.218;3.452;2023-04-24T02:46:25;16.10;;;7.90;;
20870;SDS011;10595;51.218;3.452;2023-04-24T02:48:51;19.33;;;9.30;;
20870;SDS011;10595;51.218;3.452;2023-04-24T02:51:17;14.83;;;9.03;;
20870;SDS011;10595;51.218;3.452;2023-04-24T02:53:43;18.27;;;9.70;;
20870;SDS011;10595;51.218;3.452;2023-04-24T02:56:09;20.40;;;10.23;;
20870;SDS011;10595;51.218;3.452;2023-04-24T02:58:37;18.40;;;10.40;;
20870;SDS011;10595;51.218;3.452;2023-04-24T03:01:03;20.90;;;10.77;;
20870;SDS011;10595;51.218;3.452;2023-04-24T03:03:29;28.83;;;12.57;;
20870;SDS011;10595;51.218;3.452;2023-04-24T03:05:55;22.90;;;12.80;;
20870;SDS011;10595;51.218;3.452;2023-04-24T03:08:22;25.73;;;13.50;;
20870;SDS011;10595;51.218;3.452;2023-04-24T03:10:48;30.50;;;14.40;;
20870;SDS011;10595;51.218;3.452;2023-04-24T03:13:17;25.33;;;13.90;;
20870;SDS011;10595;51.218;3.452;2023-04-24T03:15:43;24.00;;;12.70;;
20870;SDS011;10595;51.218;3.452;2023-04-24T03:18:11;25.97;;;12.43;;
20870;SDS011;10595;51.218;3.452;2023-04-24T03:20:37;26.70;;;11.90;;
20870;SDS011;10595;51.218;3.452;2023-04-24T03:23:03;28.33;;;12.57;;
20870;SDS011;10595;51.218;3.452;2023-04-24T03:25:29;27.07;;;12.07;;
20870;SDS011;10595;51.218;3.452;2023-04-24T03:27:55;26.23;;;10.97;;
20870;SDS011;10595;51.218;3.452;2023-04-24T03:30:21;24.83;;;11.60;;
20870;SDS011;10595;51.218;3.452;2023-04-24T03:32:47;24.37;;;10.97;;
20870;SDS011;10595;51.218;3.452;2023-04-24T03:35:13;22.67;;;11.20;;
20870;SDS011;10595;51.218;3.452;2023-04-24T03:37:39;18.67;;;10.60;;
20870;SDS011;10595;51.218;3.452;2023-04-24T03:40:06;20.10;;;11.40;;
20870;SDS011;10595;51.218;3.452;2023-04-24T03:42:33;24.37;;;12.10;;
20870;SDS011;10595;51.218;3.452;2023-04-24T03:44:59;19.97;;;11.40;;
20870;SDS011;10595;51.218;3.452;2023-04-24T03:47:25;23.90;;;12.00;;
20870;SDS011;10595;51.218;3.452;2023-04-24T03:49:51;15.17;;;10.63;;
20870;SDS011;10595;51.218;3.452;2023-04-24T03:52:17;20.63;;;11.27;;
20870;SDS011;10595;51.218;3.452;2023-04-24T03:54:43;27.63;;;12.10;;
20870;SDS011;10595;51.218;3.452;2023-04-24T03:57:09;21.37;;;11.80;;
20870;SDS011;10595;51.218;3.452;2023-04-24T03:59:35;22.80;;;11.33;;
20870;SDS011;10595;51.218;3.452;2023-04-24T04:02:01;21.67;;;11.43;;
20870;SDS011;10595;51.218;3.452;2023-04-24T04:04:27;21.53;;;10.73;;
20870;SDS011;10595;51.218;3.452;2023-04-24T04:06:53;23.67;;;11.00;;
20870;SDS011;10595;51.218;3.452;2023-04-24T04:09:19;24.43;;;12.37;;
20870;SDS011;10595;51.218;3.452;2023-04-24T04:11:45;24.40;;;11.73;;
20870;SDS011;10595;51.218;3.452;2023-04-24T04:14:11;23.00;;;11.43;;
20870;SDS011;10595;51.218;3.452;2023-04-24T04:16:37;20.13;;;11.63;;
20870;SDS011;10595;51.218;3.452;2023-04-24T04:19:03;21.33;;;12.73;;
20870;SDS011;10595;51.218;3.452;2023-04-24T04:21:30;22.60;;;12.13;;
20870;SDS011;10595;51.218;3.452;2023-04-24T04:23:57;25.40;;;12.97;;
20870;SDS011;10595;51.218;3.452;2023-04-24T04:26:23;27.00;;;12.73;;
20870;SDS011;10595;51.218;3.452;2023-04-24T04:28:50;30.00;;;14.43;;
20870;SDS011;10595;51.218;3.452;2023-04-24T04:31:16;28.67;;;13.10;;
20870;SDS011;10595;51.218;3.452;2023-04-24T04:33:42;28.77;;;13.67;;
20870;SDS011;10595;51.218;3.452;2023-04-24T04:36:08;29.73;;;14.70;;
20870;SDS011;10595;51.218;3.452;2023-04-24T04:38:34;26.87;;;14.13;;
20870;SDS011;10595;51.218;3.452;2023-04-24T04:41:01;29.17;;;13.73;;
20870;SDS011;10595;51.218;3.452;2023-04-24T04:43:27;30.43;;;14.07;;
20870;SDS011;10595;51.218;3.452;2023-04-24T04:45:54;27.93;;;14.13;;
20870;SDS011;10595;51.218;3.452;2023-04-24T04:48:21;26.70;;;13.40;;
20870;SDS011;10595;51.218;3.452;2023-04-24T04:50:47;28.50;;;14.80;;
20870;SDS011;10595;51.218;3.452;2023-04-24T04:53:13;28.93;;;14.37;;
20870;SDS011;10595;51.218;3.452;2023-04-24T04:55:39;26.03;;;15.43;;
20870;SDS011;10595;51.218;3.452;2023-04-24T04:58:05;31.40;;;15.10;;
20870;SDS011;10595;51.218;3.452;2023-04-24T05:00:31;26.97;;;13.77;;
20870;SDS011;10595;51.218;3.452;2023-04-24T05:03:00;26.07;;;14.70;;
20870;SDS011;10595;51.218;3.452;2023-04-24T05:05:26;30.00;;;14.30;;
20870;SDS011;10595;51.218;3.452;2023-04-24T05:07:52;24.30;;;12.57;;
20870;SDS011;10595;51.218;3.452;2023-04-24T05:10:18;28.07;;;14.60;;
20870;SDS011;10595;51.218;3.452;2023-04-24T05:12:44;28.23;;;14.73;;
20870;SDS011;10595;51.218;3.452;2023-04-24T05:15:10;30.30;;;15.27;;
20870;SDS011;10595;51.218;3.452;2023-04-24T05:17:36;31.50;;;14.83;;
20870;SDS011;10595;51.218;3.452;2023-04-24T05:20:05;31.03;;;14.17;;
20870;SDS011;10595;51.218;3.452;2023-04-24T05:22:31;32.20;;;14.63;;
20870;SDS011;10595;51.218;3.452;2023-04-24T05:24:57;32.50;;;15.50;;
20870;SDS011;10595;51.218;3.452;2023-04-24T05:27:24;32.87;;;14.30;;
20870;SDS011;10595;51.218;3.452;2023-04-24T05:29:50;31.97;;;13.97;;
20870;SDS011;10595;51.218;3.452;2023-04-24T05:32:16;24.90;;;11.83;;
20870;SDS011;10595;51.218;3.452;2023-04-24T05:34:42;31.73;;;14.37;;
20870;SDS011;10595;51.218;3.452;2023-04-24T05:37:08;34.47;;;14.60;;
20870;SDS011;10595;51.218;3.452;2023-04-24T05:39:35;33.13;;;14.40;;
20870;SDS011;10595;51.218;3.452;2023-04-24T05:42:01;36.37;;;12.83;;
20870;SDS011;10595;51.218;3.452;2023-04-24T05:44:29;34.40;;;12.63;;
20870;SDS011;10595;51.218;3.452;2023-04-24T05:46:55;23.40;;;11.47;;
20870;SDS011;10595;51.218;3.452;2023-04-24T05:49:21;24.67;;;11.73;;
20870;SDS011;10595;51.218;3.452;2023-04-24T05:51:47;21.70;;;9.63;;
20870;SDS011;10595;51.218;3.452;2023-04-24T05:54:13;22.30;;;8.93;;
20870;SDS011;10595;51.218;3.452;2023-04-24T05:56:39;32.07;;;9.47;;
20870;SDS011;10595;51.218;3.452;2023-04-24T05:59:05;21.47;;;9.53;;
20870;SDS011;10595;51.218;3.452;2023-04-24T06:01:32;19.47;;;8.63;;
20870;SDS011;10595;51.218;3.452;2023-04-24T06:03:58;23.73;;;8.00;;
20870;SDS011;10595;51.218;3.452;2023-04-24T06:06:24;25.43;;;8.10;;
20870;SDS011;10595;51.218;3.452;2023-04-24T06:08:51;15.27;;;7.17;;
20870;SDS011;10595;51.218;3.452;2023-04-24T06:11:17;28.23;;;7.97;;
20870;SDS011;10595;51.218;3.452;2023-04-24T06:13:43;22.60;;;8.80;;
20870;SDS011;10595;51.218;3.452;2023-04-24T06:16:09;25.00;;;8.07;;
20870;SDS011;10595;51.218;3.452;2023-04-24T06:18:35;30.73;;;8.87;;
20870;SDS011;10595;51.218;3.452;2023-04-24T06:21:01;17.27;;;6.90;;
20870;SDS011;10595;51.218;3.452;2023-04-24T06:23:27;17.83;;;7.00;;
20870;SDS011;10595;51.218;3.452;2023-04-24T06:25:54;23.63;;;8.37;;
20870;SDS011;10595;51.218;3.452;2023-04-24T06:28:20;22.13;;;7.70;;
20870;SDS011;10595;51.218;3.452;2023-04-24T06:30:46;16.87;;;7.33;;
20870;SDS011;10595;51.218;3.452;2023-04-24T06:33:12;23.67;;;8.23;;
20870;SDS011;10595;51.218;3.452;2023-04-24T06:35:38;19.33;;;6.20;;
20870;SDS011;10595;51.218;3.452;2023-04-24T06:38:04;24.03;;;6.17;;
20870;SDS011;10595;51.218;3.452;2023-04-24T06:40:30;16.17;;;5.37;;
20870;SDS011;10595;51.218;3.452;2023-04-24T06:42:56;15.50;;;6.20;;
20870;SDS011;10595;51.218;3.452;2023-04-24T06:45:25;16.40;;;5.97;;
20870;SDS011;10595;51.218;3.452;2023-04-24T06:47:51;27.13;;;5.87;;
20870;SDS011;10595;51.218;3.452;2023-04-24T06:50:17;20.20;;;5.17;;
20870;SDS011;10595;51.218;3.452;2023-04-24T06:52:43;18.17;;;4.90;;
20870;SDS011;10595;51.218;3.452;2023-04-24T06:55:09;19.13;;;5.20;;
20870;SDS011;10595;51.218;3.452;2023-04-24T06:57:36;16.13;;;4.67;;
20870;SDS011;10595;51.218;3.452;2023-04-24T07:00:03;14.80;;;5.53;;
20870;SDS011;10595;51.218;3.452;2023-04-24T07:02:30;17.83;;;4.70;;
20870;SDS011;10595;51.218;3.452;2023-04-24T07:04:56;16.97;;;4.70;;
20870;SDS011;10595;51.218;3.452;2023-04-24T07:07:22;15.67;;;4.70;;
20870;SDS011;10595;51.218;3.452;2023-04-24T07:09:48;15.20;;;4.63;;
20870;SDS011;10595;51.218;3.452;2023-04-24T07:12:15;12.07;;;4.10;;
20870;SDS011;10595;51.218;3.452;2023-04-24T07:14:42;14.80;;;4.37;;
20870;SDS011;10595;51.218;3.452;2023-04-24T07:17:08;17.80;;;4.97;;
20870;SDS011;10595;51.218;3.452;2023-04-24T07:19:34;19.23;;;4.33;;
20870;SDS011;10595;51.218;3.452;2023-04-24T07:22:00;15.87;;;4.10;;
20870;SDS011;10595;51.218;3.452;2023-04-24T07:24:28;16.70;;;5.43;;
20870;SDS011;10595;51.218;3.452;2023-04-24T07:26:54;16.87;;;5.60;;
20870;SDS011;10595;51.218;3.452;2023-04-24T07:29:21;28.87;;;7.17;;
20870;SDS011;10595;51.218;3.452;2023-04-24T07:31:47;19.47;;;6.60;;
20870;SDS011;10595;51.218;3.452;2023-04-24T07:34:13;20.07;;;5.97;;
20870;SDS011;10595;51.218;3.452;2023-04-24T07:36:40;17.30;;;6.87;;
20870;SDS011;10595;51.218;3.452;2023-04-24T07:39:06;18.70;;;6.87;;
20870;SDS011;10595;51.218;3.452;2023-04-24T07:41:33;18.30;;;5.80;;
20870;SDS011;10595;51.218;3.452;2023-04-24T07:43:59;22.10;;;6.57;;
20870;SDS011;10595;51.218;3.452;2023-04-24T07:46:25;17.87;;;5.73;;
20870;SDS011;10595;51.218;3.452;2023-04-24T07:48:54;11.77;;;4.77;;
20870;SDS011;10595;51.218;3.452;2023-04-24T07:51:20;21.97;;;5.13;;
20870;SDS011;10595;51.218;3.452;2023-04-24T07:53:46;10.90;;;4.00;;
20870;SDS011;10595;51.218;3.452;2023-04-24T07:56:12;9.67;;;3.93;;
20870;SDS011;10595;51.218;3.452;2023-04-24T07:58:39;11.60;;;3.83;;
20870;SDS011;10595;51.218;3.452;2023-04-24T08:01:05;13.57;;;4.30;;
20870;SDS011;10595;51.218;3.452;2023-04-24T08:03:31;11.10;;;4.10;;
20870;SDS011;10595;51.218;3.452;2023-04-24T08:05:57;14.63;;;4.03;;
20870;SDS011;10595;51.218;3.452;2023-04-24T08:08:24;10.60;;;3.50;;
20870;SDS011;10595;51.218;3.452;2023-04-24T08:10:51;9.60;;;3.60;;
20870;SDS011;10595;51.218;3.452;2023-04-24T08:13:17;14.10;;;4.40;;
20870;SDS011;10595;51.218;3.452;2023-04-24T08:15:43;12.73;;;3.60;;
20870;SDS011;10595;51.218;3.452;2023-04-24T08:18:09;11.53;;;3.70;;
20870;SDS011;10595;51.218;3.452;2023-04-24T08:20:36;13.73;;;4.20;;
20870;SDS011;10595;51.218;3.452;2023-04-24T08:23:02;10.97;;;3.43;;
20870;SDS011;10595;51.218;3.452;2023-04-24T08:25:28;16.17;;;4.37;;
20870;SDS011;10595;51.218;3.452;2023-04-24T08:27:55;10.60;;;3.90;;
20870;SDS011;10595;51.218;3.452;2023-04-24T08:30:21;10.00;;;3.93;;
20870;SDS011;10595;51.218;3.452;2023-04-24T08:32:47;9.70;;;4.30;;
20870;SDS011;10595;51.218;3.452;2023-04-24T08:35:13;7.43;;;3.90;;
20870;SDS011;10595;51.218;3.452;2023-04-24T08:37:39;12.50;;;4.37;;
20870;SDS011;10595;51.218;3.452;2023-04-24T08:40:06;11.93;;;4.00;;
20870;SDS011;10595;51.218;3.452;2023-04-24T08:42:35;15.60;;;4.40;;
20870;SDS011;10595;51.218;3.452;2023-04-24T08:45:02;13.97;;;4.50;;
20870;SDS011;10595;51.218;3.452;2023-04-24T08:47:29;15.17;;;4.13;;
20870;SDS011;10595;51.218;3.452;2023-04-24T08:49:56;14.60;;;4.20;;
20870;SDS011;10595;51.218;3.452;2023-04-24T08:52:23;11.20;;;4.40;;
20870;SDS011;10595;51.218;3.452;2023-04-24T08:54:53;11.53;;;4.47;;
20870;SDS011;10595;51.218;3.452;2023-04-24T08:57:19;14.03;;;4.47;;
20870;SDS011;10595;51.218;3.452;2023-04-24T08:59:45;13.80;;;4.43;;
20870;SDS011;10595;51.218;3.452;2023-04-24T09:02:12;13.77;;;4.07;;
20870;SDS011;10595;51.218;3.452;2023-04-24T09:04:39;9.03;;;3.77;;
20870;SDS011;10595;51.218;3.452;2023-04-24T09:07:06;10.73;;;3.70;;
20870;SDS011;10595;51.218;3.452;2023-04-24T09:09:32;10.97;;;4.10;;
20870;SDS011;10595;51.218;3.452;2023-04-24T09:11:59;10.20;;;2.90;;
20870;SDS011;10595;51.218;3.452;2023-04-24T09:14:25;11.40;;;3.70;;
20870;SDS011;10595;51.218;3.452;2023-04-24T09:16:52;8.97;;;3.43;;
20870;SDS011;10595;51.218;3.452;2023-04-24T09:19:18;12.40;;;3.83;;
20870;SDS011;10595;51.218;3.452;2023-04-24T09:21:46;9.90;;;3.80;;
20870;SDS011;10595;51.218;3.452;2023-04-24T09:24:16;11.83;;;3.97;;
20870;SDS011;10595;51.218;3.452;2023-04-24T09:26:43;9.53;;;3.83;;
20870;SDS011;10595;51.218;3.452;2023-04-24T09:29:14;10.80;;;4.10;;
20870;SDS011;10595;51.218;3.452;2023-04-24T09:31:40;10.50;;;4.43;;
20870;SDS011;10595;51.218;3.452;2023-04-24T09:34:06;12.20;;;4.17;;
20870;SDS011;10595;51.218;3.452;2023-04-24T09:36:37;11.17;;;4.50;;
20870;SDS011;10595;51.218;3.452;2023-04-24T09:39:07;8.67;;;3.87;;
20870;SDS011;10595;51.218;3.452;2023-04-24T09:41:35;12.10;;;4.80;;
20870;SDS011;10595;51.218;3.452;2023-04-24T09:46:37;19.30;;;5.17;;
20870;SDS011;10595;51.218;3.452;2023-04-24T09:49:10;9.53;;;4.33;;
20870;SDS011;10595;51.218;3.452;2023-04-24T09:51:37;8.67;;;3.60;;
20870;SDS011;10595;51.218;3.452;2023-04-24T09:54:13;11.87;;;3.43;;
20870;SDS011;10595;51.218;3.452;2023-04-24T09:56:41;12.13;;;4.23;;
20870;SDS011;10595;51.218;3.452;2023-04-24T09:59:08;9.63;;;3.27;;
20870;SDS011;10595;51.218;3.452;2023-04-24T10:01:34;17.27;;;3.43;;
20870;SDS011;10595;51.218;3.452;2023-04-24T10:04:01;8.97;;;2.87;;
20870;SDS011;10595;51.218;3.452;2023-04-24T10:06:33;8.10;;;2.53;;
20870;SDS011;10595;51.218;3.452;2023-04-24T10:09:00;10.37;;;2.90;;
20870;SDS011;10595;51.218;3.452;2023-04-24T10:11:27;8.00;;;3.30;;
20870;SDS011;10595;51.218;3.452;2023-04-24T10:13:53;6.63;;;2.53;;
20870;SDS011;10595;51.218;3.452;2023-04-24T10:16:20;6.03;;;2.20;;
20870;SDS011;10595;51.218;3.452;2023-04-24T10:18:47;8.13;;;2.23;;
20870;SDS011;10595;51.218;3.452;2023-04-24T10:21:14;7.97;;;2.53;;
20870;SDS011;10595;51.218;3.452;2023-04-24T10:23:41;7.87;;;2.97;;
20870;SDS011;10595;51.218;3.452;2023-04-24T10:26:10;10.73;;;2.87;;
20870;SDS011;10595;51.218;3.452;2023-04-24T10:28:43;8.17;;;3.30;;
20870;SDS011;10595;51.218;3.452;2023-04-24T10:31:10;8.83;;;2.60;;
20870;SDS011;10595;51.218;3.452;2023-04-24T10:33:37;9.13;;;2.93;;
20870;SDS011;10595;51.218;3.452;2023-04-24T10:36:06;6.50;;;2.60;;
20870;SDS011;10595;51.218;3.452;2023-04-24T10:38:32;11.13;;;3.20;;
20870;SDS011;10595;51.218;3.452;2023-04-24T10:41:12;8.53;;;2.80;;
20870;SDS011;10595;51.218;3.452;2023-04-24T10:43:44;8.03;;;3.37;;
20870;SDS011;10595;51.218;3.452;2023-04-24T10:46:10;6.93;;;2.07;;
20870;SDS011;10595;51.218;3.452;2023-04-24T10:48:41;5.90;;;2.40;;
20870;SDS011;10595;51.218;3.452;2023-04-24T10:51:10;9.53;;;2.37;;
20870;SDS011;10595;51.218;3.452;2023-04-24T10:53:36;8.70;;;2.23;;
20870;SDS011;10595;51.218;3.452;2023-04-24T10:56:06;6.07;;;1.80;;
20870;SDS011;10595;51.218;3.452;2023-04-24T10:58:44;6.20;;;2.27;;
20870;SDS011;10595;51.218;3.452;2023-04-24T11:01:23;5.83;;;2.00;;
20870;SDS011;10595;51.218;3.452;2023-04-24T11:03:59;9.23;;;2.87;;
20870;SDS011;10595;51.218;3.452;2023-04-24T11:06:30;4.17;;;1.30;;
20870;SDS011;10595;51.218;3.452;2023-04-24T11:11:30;4.90;;;1.43;;
20870;SDS011;10595;51.218;3.452;2023-04-24T11:18:52;4.63;;;1.80;;
20870;SDS011;10595;51.218;3.452;2023-04-24T11:21:19;7.97;;;2.80;;
20870;SDS011;10595;51.218;3.452;2023-04-24T11:23:46;8.07;;;2.40;;
20870;SDS011;10595;51.218;3.452;2023-04-24T11:26:13;5.43;;;1.70;;
20870;SDS011;10595;51.218;3.452;2023-04-24T11:28:46;5.37;;;1.70;;
20870;SDS011;10595;51.218;3.452;2023-04-24T11:34:02;7.17;;;1.50;;
20870;SDS011;10595;51.218;3.452;2023-04-24T11:36:31;5.70;;;1.60;;
20870;SDS011;10595;51.218;3.452;2023-04-24T11:38:57;5.43;;;1.60;;
20870;SDS011;10595;51.218;3.452;2023-04-24T11:41:23;4.87;;;1.70;;
20870;SDS011;10595;51.218;3.452;2023-04-24T11:43:51;4.37;;;1.53;;
20870;SDS011;10595;51.218;3.452;2023-04-24T11:46:18;6.20;;;2.43;;
20870;SDS011;10595;51.218;3.452;2023-04-24T11:48:47;4.40;;;1.90;;
20870;SDS011;10595;51.218;3.452;2023-04-24T11:51:13;5.70;;;1.43;;
20870;SDS011;10595;51.218;3.452;2023-04-24T11:53:39;6.03;;;1.87;;
20870;SDS011;10595;51.218;3.452;2023-04-24T11:56:05;7.30;;;1.70;;
20870;SDS011;10595;51.218;3.452;2023-04-24T11:58:38;4.30;;;1.67;;
20870;SDS011;10595;51.218;3.452;2023-04-24T12:01:04;5.13;;;1.33;;
20870;SDS011;10595;51.218;3.452;2023-04-24T12:03:31;7.07;;;1.77;;
20870;SDS011;10595;51.218;3.452;2023-04-24T12:06:07;4.03;;;1.20;;
20870;SDS011;10595;51.218;3.452;2023-04-24T12:08:33;4.93;;;2.00;;
20870;SDS011;10595;51.218;3.452;2023-04-24T12:11:00;8.93;;;2.13;;
20870;SDS011;10595;51.218;3.452;2023-04-24T12:13:26;6.63;;;1.60;;
20870;SDS011;10595;51.218;3.452;2023-04-24T12:15:52;4.10;;;1.30;;
20870;SDS011;10595;51.218;3.452;2023-04-24T12:18:18;6.07;;;1.60;;
20870;SDS011;10595;51.218;3.452;2023-04-24T12:20:47;5.73;;;1.50;;
20870;SDS011;10595;51.218;3.452;2023-04-24T12:23:13;4.90;;;1.50;;
20870;SDS011;10595;51.218;3.452;2023-04-24T12:25:39;5.37;;;1.40;;
20870;SDS011;10595;51.218;3.452;2023-04-24T12:30:33;3.23;;;1.30;;
20870;SDS011;10595;51.218;3.452;2023-04-24T12:32:59;8.70;;;1.10;;
20870;SDS011;10595;51.218;3.452;2023-04-24T12:35:28;5.80;;;1.33;;
20870;SDS011;10595;51.218;3.452;2023-04-24T12:37:54;4.87;;;1.53;;
20870;SDS011;10595;51.218;3.452;2023-04-24T12:40:21;5.67;;;1.93;;
20870;SDS011;10595;51.218;3.452;2023-04-24T12:42:48;4.90;;;1.27;;
20870;SDS011;10595;51.218;3.452;2023-04-24T12:45:15;6.67;;;1.30;;
20870;SDS011;10595;51.218;3.452;2023-04-24T12:47:42;4.63;;;1.00;;
20870;SDS011;10595;51.218;3.452;2023-04-24T12:50:09;2.67;;;1.07;;
20870;SDS011;10595;51.218;3.452;2023-04-24T12:52:35;2.73;;;1.20;;
20870;SDS011;10595;51.218;3.452;2023-04-24T12:55:02;4.30;;;1.43;;
20870;SDS011;10595;51.218;3.452;2023-04-24T12:57:29;5.17;;;1.20;;
20870;SDS011;10595;51.218;3.452;2023-04-24T12:59:55;1.80;;;1.00;;
20870;SDS011;10595;51.218;3.452;2023-04-24T13:02:22;3.23;;;0.90;;
20870;SDS011;10595;51.218;3.452;2023-04-24T13:04:48;2.70;;;0.90;;
20870;SDS011;10595;51.218;3.452;2023-04-24T13:07:15;2.37;;;0.70;;
20870;SDS011;10595;51.218;3.452;2023-04-24T13:09:41;3.13;;;0.80;;
20870;SDS011;10595;51.218;3.452;2023-04-24T13:12:08;3.33;;;0.80;;
20870;SDS011;10595;51.218;3.452;2023-04-24T13:14:34;3.17;;;0.80;;
20870;SDS011;10595;51.218;3.452;2023-04-24T13:17:00;2.40;;;1.00;;
20870;SDS011;10595;51.218;3.452;2023-04-24T13:19:27;5.37;;;1.17;;
20870;SDS011;10595;51.218;3.452;2023-04-24T13:21:54;3.43;;;1.03;;
20870;SDS011;10595;51.218;3.452;2023-04-24T13:24:21;2.33;;;1.00;;
20870;SDS011;10595;51.218;3.452;2023-04-24T13:26:49;2.70;;;1.20;;
20870;SDS011;10595;51.218;3.452;2023-04-24T13:29:16;4.33;;;1.30;;
20870;SDS011;10595;51.218;3.452;2023-04-24T13:31:42;5.90;;;1.30;;
20870;SDS011;10595;51.218;3.452;2023-04-24T13:34:08;2.83;;;1.17;;
20870;SDS011;10595;51.218;3.452;2023-04-24T13:36:34;4.53;;;1.33;;
20870;SDS011;10595;51.218;3.452;2023-04-24T13:39:00;4.87;;;1.53;;
20870;SDS011;10595;51.218;3.452;2023-04-24T13:41:26;3.23;;;1.47;;
20870;SDS011;10595;51.218;3.452;2023-04-24T13:43:52;2.73;;;1.30;;
20870;SDS011;10595;51.218;3.452;2023-04-24T13:46:18;3.03;;;1.10;;
20870;SDS011;10595;51.218;3.452;2023-04-24T13:48:44;2.63;;;1.20;;
20870;SDS011;10595;51.218;3.452;2023-04-24T13:51:10;4.57;;;1.30;;
20870;SDS011;10595;51.218;3.452;2023-04-24T13:53:36;5.30;;;1.70;;
20870;SDS011;10595;51.218;3.452;2023-04-24T13:56:03;3.40;;;1.40;;
20870;SDS011;10595;51.218;3.452;2023-04-24T13:58:30;4.87;;;1.47;;
20870;SDS011;10595;51.218;3.452;2023-04-24T14:00:57;2.60;;;1.50;;
20870;SDS011;10595;51.218;3.452;2023-04-24T14:03:23;6.87;;;1.67;;
20870;SDS011;10595;51.218;3.452;2023-04-24T14:05:49;6.07;;;1.90;;
20870;SDS011;10595;51.218;3.452;2023-04-24T14:08:15;5.90;;;2.10;;
20870;SDS011;10595;51.218;3.452;2023-04-24T14:10:42;4.30;;;1.93;;
20870;SDS011;10595;51.218;3.452;2023-04-24T14:13:08;4.83;;;2.27;;
20870;SDS011;10595;51.218;3.452;2023-04-24T14:15:37;4.10;;;1.77;;
20870;SDS011;10595;51.218;3.452;2023-04-24T14:18:03;2.63;;;1.37;;
20870;SDS011;10595;51.218;3.452;2023-04-24T14:20:30;3.63;;;1.40;;
20870;SDS011;10595;51.218;3.452;2023-04-24T14:22:56;6.50;;;1.60;;
20870;SDS011;10595;51.218;3.452;2023-04-24T14:25:25;3.73;;;1.60;;
20870;SDS011;10595;51.218;3.452;2023-04-24T14:27:51;2.70;;;1.27;;
20870;SDS011;10595;51.218;3.452;2023-04-24T14:30:17;7.17;;;1.97;;
20870;SDS011;10595;51.218;3.452;2023-04-24T14:32:43;2.73;;;1.30;;
20870;SDS011;10595;51.218;3.452;2023-04-24T14:35:09;5.03;;;1.63;;
20870;SDS011;10595;51.218;3.452;2023-04-24T14:37:35;4.57;;;1.67;;
20870;SDS011;10595;51.218;3.452;2023-04-24T14:40:02;15.70;;;1.97;;
20870;SDS011;10595;51.218;3.452;2023-04-24T14:42:30;4.03;;;1.47;;
20870;SDS011;10595;51.218;3.452;2023-04-24T14:44:56;2.30;;;1.37;;
20870;SDS011;10595;51.218;3.452;2023-04-24T14:47:22;2.93;;;1.67;;